createdAt,value
2022-09-13T00:00:45.446Z,99.99
2022-09-13T00:01:45.608Z,99.99
2022-09-13T00:02:45.309Z,99.99
2022-09-13T00:03:45.295Z,99.99
2022-09-13T00:04:45.311Z,99.99
2022-09-13T00:05:45.385Z,99.99
2022-09-13T00:06:45.010Z,99.99
2022-09-13T00:07:44.998Z,99.99
2022-09-13T00:08:45.219Z,99.99
2022-09-13T00:09:44.974Z,99.99
2022-09-13T00:10:45.221Z,99.99
2022-09-13T00:11:45.212Z,99.99
2022-09-13T00:12:44.947Z,99.99
2022-09-13T00:13:45.185Z,99.99
2022-09-13T00:14:45.180Z,99.99
2022-09-13T00:15:44.908Z,99.99
2022-09-13T00:16:44.990Z,99.99
2022-09-13T00:17:45.142Z,99.99
2022-09-13T00:18:45.116Z,99.99
2022-09-13T00:19:44.876Z,99.99
2022-09-13T00:20:44.878Z,99.99
2022-09-13T00:21:45.129Z,99.99
2022-09-13T00:22:44.851Z,99.99
2022-09-13T00:23:45.083Z,99.99
2022-09-13T00:24:44.821Z,99.99
2022-09-13T00:25:45.064Z,99.99
2022-09-13T00:26:45.053Z,99.99
2022-09-13T00:27:44.783Z,99.99
2022-09-13T00:28:44.922Z,99.99
2022-09-13T00:29:45.016Z,99.99
2022-09-13T00:30:45.006Z,99.99
2022-09-13T00:31:45.055Z,99.99
2022-09-13T00:32:45.031Z,99.99
2022-09-13T00:33:44.987Z,99.99
2022-09-13T00:34:44.965Z,99.99
2022-09-13T00:35:44.707Z,99.99
2022-09-13T00:36:44.977Z,99.99
2022-09-13T00:37:45.039Z,99.99
2022-09-13T00:38:44.943Z,99.99
2022-09-13T00:39:49.830Z,99.99
2022-09-13T00:40:44.896Z,99.99
2022-09-13T00:41:44.643Z,99.99
2022-09-13T00:42:44.626Z,99.99
2022-09-13T00:43:44.615Z,99.99
2022-09-13T00:44:44.598Z,99.99
2022-09-13T00:45:44.952Z,99.99
2022-09-13T00:46:44.574Z,99.99
2022-09-13T00:47:44.824Z,99.99
2022-09-13T00:48:44.811Z,99.99
2022-09-13T00:49:44.802Z,99.99
2022-09-13T00:50:44.787Z,99.99
2022-09-13T00:51:44.532Z,99.99
2022-09-13T00:52:48.849Z,99.99
2022-09-13T00:53:44.935Z,99.99
2022-09-13T00:54:44.497Z,99.99
2022-09-13T00:55:44.482Z,99.99
2022-09-13T00:56:44.722Z,99.99
2022-09-13T00:57:44.717Z,99.99
2022-09-13T00:58:44.715Z,99.99
2022-09-13T00:59:44.440Z,99.99
2022-09-13T01:00:44.749Z,99.99
2022-09-13T01:01:44.450Z,99.99
2022-09-13T01:02:44.408Z,99.99
2022-09-13T01:03:44.447Z,99.99
2022-09-13T01:04:44.637Z,99.99
2022-09-13T01:05:44.381Z,99.99
2022-09-13T01:06:44.620Z,99.99
2022-09-13T01:07:44.356Z,99.99
2022-09-13T01:08:44.621Z,99.99
2022-09-13T01:09:44.696Z,99.99
2022-09-13T01:10:44.578Z,99.99
2022-09-13T01:11:44.310Z,99.99
2022-09-13T01:12:44.562Z,99.99
2022-09-13T01:13:44.351Z,99.99
2022-09-13T01:14:44.281Z,99.99
2022-09-13T01:15:44.521Z,99.99
2022-09-13T01:16:49.581Z,99.99
2022-09-13T01:17:44.243Z,99.99
2022-09-13T01:18:44.237Z,99.99
2022-09-13T01:19:44.241Z,99.99
2022-09-13T01:20:44.216Z,99.99
2022-09-13T01:21:44.460Z,99.99
2022-09-13T01:22:44.195Z,99.99
2022-09-13T01:23:44.551Z,99.99
2022-09-13T01:24:44.198Z,99.99
2022-09-13T01:25:44.442Z,99.99
2022-09-13T01:26:44.153Z,99.99
2022-09-13T01:27:44.144Z,99.99
2022-09-13T01:28:44.130Z,99.99
2022-09-13T01:29:44.376Z,99.99
2022-09-13T01:30:44.113Z,99.99
2022-09-13T01:31:44.549Z,99.99
2022-09-13T01:32:44.346Z,99.99
2022-09-13T01:33:44.329Z,99.99
2022-09-13T01:34:44.326Z,99.99
2022-09-13T01:35:44.313Z,99.99
2022-09-13T01:36:44.302Z,99.99
2022-09-13T01:37:44.036Z,99.99
2022-09-13T01:38:44.023Z,99.99
2022-09-13T01:39:44.089Z,99.99
2022-09-13T01:40:44.028Z,99.99
2022-09-13T01:41:44.270Z,99.99
2022-09-13T01:42:44.236Z,99.99
2022-09-13T01:43:44.139Z,99.99
2022-09-13T01:44:43.957Z,99.99
2022-09-13T01:45:44.297Z,99.99
2022-09-13T01:46:44.438Z,99.99
2022-09-13T01:47:43.924Z,99.99
2022-09-13T01:48:44.172Z,99.99
2022-09-13T01:49:44.161Z,99.99
2022-09-13T01:50:44.152Z,99.99
2022-09-13T01:51:43.885Z,99.99
2022-09-13T01:52:43.878Z,99.99
2022-09-13T01:53:44.252Z,99.99
2022-09-13T01:54:44.106Z,99.99
2022-09-13T01:55:44.104Z,99.99
2022-09-13T01:56:43.855Z,99.99
2022-09-13T01:57:44.100Z,99.99
2022-09-13T01:58:44.065Z,99.99
2022-09-13T01:59:43.799Z,99.99
2022-09-13T02:00:44.049Z,99.99
2022-09-13T02:01:43.777Z,99.99
2022-09-13T02:02:43.766Z,99.99
2022-09-13T02:03:43.832Z,99.99
2022-09-13T02:04:43.748Z,99.99
2022-09-13T02:05:43.994Z,99.99
2022-09-13T02:06:43.982Z,99.99
2022-09-13T02:07:43.967Z,99.99
2022-09-13T02:08:43.952Z,99.99
2022-09-13T02:09:43.689Z,99.99
2022-09-13T02:10:43.678Z,99.99
2022-09-13T02:11:43.925Z,99.99
2022-09-13T02:12:43.933Z,99.99
2022-09-13T02:13:44.029Z,99.99
2022-09-13T02:14:43.887Z,99.99
2022-09-13T02:15:43.902Z,99.99
2022-09-13T02:16:43.728Z,99.99
2022-09-13T02:17:43.604Z,99.99
2022-09-13T02:18:43.599Z,99.99
2022-09-13T02:19:43.837Z,99.99
2022-09-13T02:20:43.580Z,99.99
2022-09-13T02:21:43.816Z,99.99
2022-09-13T02:22:43.548Z,99.99
2022-09-13T02:23:43.541Z,99.99
2022-09-13T02:24:43.527Z,99.99
2022-09-13T02:25:43.773Z,99.99
2022-09-13T02:26:43.758Z,99.99
2022-09-13T02:27:43.751Z,99.99
2022-09-13T02:28:43.590Z,99.99
2022-09-13T02:29:43.844Z,99.99
2022-09-13T02:30:43.714Z,99.99
2022-09-13T02:31:43.690Z,99.99
2022-09-13T02:32:43.695Z,99.99
2022-09-13T02:33:43.455Z,99.99
2022-09-13T02:34:43.672Z,99.99
2022-09-13T02:35:43.445Z,99.99
2022-09-13T02:36:43.651Z,99.99
2022-09-13T02:37:43.647Z,99.99
2022-09-13T02:38:43.373Z,99.99
2022-09-13T02:39:43.681Z,99.99
2022-09-13T02:40:43.352Z,99.99
2022-09-13T02:41:43.355Z,99.99
2022-09-13T02:42:43.585Z,99.99
2022-09-13T02:43:43.733Z,99.99
2022-09-13T02:44:43.335Z,99.99
2022-09-13T02:45:43.770Z,99.99
2022-09-13T02:46:43.545Z,99.99
2022-09-13T02:47:43.533Z,99.99
2022-09-13T02:48:43.526Z,99.99
2022-09-13T02:49:43.515Z,99.99
2022-09-13T02:50:43.497Z,99.99
2022-09-13T02:51:43.493Z,99.99
2022-09-13T02:52:43.225Z,99.99
2022-09-13T02:53:43.465Z,99.99
2022-09-13T02:54:43.206Z,99.99
2022-09-13T02:55:43.191Z,99.99
2022-09-13T02:56:43.440Z,99.99
2022-09-13T02:57:43.425Z,99.99
2022-09-13T02:58:43.182Z,99.99
2022-09-13T02:59:43.150Z,99.99
2022-09-13T03:00:43.200Z,99.99
2022-09-13T03:01:43.415Z,99.99
2022-09-13T03:02:43.119Z,99.99
2022-09-13T03:03:43.108Z,99.99
2022-09-13T03:04:43.098Z,99.99
2022-09-13T03:05:43.345Z,99.99
2022-09-13T03:06:43.077Z,99.99
2022-09-13T03:07:43.067Z,99.99
2022-09-13T03:08:43.055Z,99.99
2022-09-13T03:09:43.046Z,99.99
2022-09-13T03:10:43.045Z,99.99
2022-09-13T03:11:43.281Z,99.99
2022-09-13T03:12:43.278Z,99.99
2022-09-13T03:13:43.002Z,99.99
2022-09-13T03:14:43.249Z,99.99
2022-09-13T03:15:43.237Z,99.99
2022-09-13T03:16:43.177Z,99.99
2022-09-13T03:17:43.241Z,99.99
2022-09-13T03:18:43.210Z,99.99
2022-09-13T03:19:43.193Z,99.99
2022-09-13T03:20:42.930Z,99.99
2022-09-13T03:21:43.175Z,99.99
2022-09-13T03:22:43.165Z,99.99
2022-09-13T03:23:43.154Z,99.99
2022-09-13T03:24:42.922Z,99.99
2022-09-13T03:25:43.136Z,99.99
2022-09-13T03:26:42.882Z,99.99
2022-09-13T03:27:42.863Z,99.99
2022-09-13T03:28:42.898Z,99.99
2022-09-13T03:29:42.836Z,99.99
2022-09-13T03:30:43.081Z,99.99
2022-09-13T03:31:43.235Z,99.99
2022-09-13T03:32:43.082Z,99.99
2022-09-13T03:49:33.763Z,99.99
2022-09-13T03:50:33.360Z,99.99
2022-09-13T03:51:33.351Z,99.99
2022-09-13T03:52:33.587Z,99.99
2022-09-13T03:53:33.573Z,99.99
2022-09-13T03:54:33.578Z,99.99
2022-09-13T03:55:33.551Z,99.99
2022-09-13T03:56:33.537Z,99.99
2022-09-13T03:57:33.529Z,99.99
2022-09-13T03:58:33.515Z,99.99
2022-09-13T03:59:33.247Z,99.99
2022-09-13T04:00:33.243Z,99.99
2022-09-13T04:01:33.732Z,99.99
2022-09-13T04:02:33.597Z,99.99
2022-09-13T04:03:33.462Z,99.99
2022-09-13T04:04:33.190Z,99.99
2022-09-13T04:05:33.491Z,99.99
2022-09-13T04:06:33.425Z,99.99
2022-09-13T04:07:33.159Z,99.99
2022-09-13T04:08:33.404Z,99.99
2022-09-13T04:09:33.396Z,99.99
2022-09-13T04:10:33.381Z,99.99
2022-09-13T04:11:33.119Z,99.99
2022-09-13T04:12:33.362Z,99.99
2022-09-13T04:13:33.354Z,99.99
2022-09-13T04:14:33.088Z,99.99
2022-09-13T04:15:33.082Z,99.99
2022-09-13T04:16:33.398Z,99.99
2022-09-13T04:17:33.314Z,99.99
2022-09-13T04:18:33.044Z,99.99
2022-09-13T04:19:33.292Z,99.99
2022-09-13T04:20:33.277Z,99.99
2022-09-13T04:21:33.422Z,99.99
2022-09-13T04:22:33.003Z,99.99
2022-09-13T04:23:33.251Z,99.99
2022-09-13T04:24:33.238Z,99.99
2022-09-13T04:25:32.971Z,99.99
2022-09-13T04:26:32.962Z,99.99
2022-09-13T04:27:33.212Z,99.99
2022-09-13T04:28:32.940Z,99.99
2022-09-13T04:29:33.214Z,99.99
2022-09-13T04:30:32.925Z,99.99
2022-09-13T04:31:33.299Z,99.99
2022-09-13T04:32:33.155Z,99.99
2022-09-13T04:33:32.897Z,99.99
2022-09-13T04:34:32.880Z,99.99
2022-09-13T04:35:33.128Z,99.99
2022-09-13T04:36:33.119Z,99.99
2022-09-13T04:37:33.152Z,99.99
2022-09-13T04:38:32.840Z,99.99
2022-09-13T04:39:32.835Z,99.99
2022-09-13T04:40:33.075Z,99.99
2022-09-13T04:41:33.069Z,99.99
2022-09-13T04:42:33.061Z,99.99
2022-09-13T04:43:32.788Z,99.99
2022-09-13T04:44:33.039Z,99.99
2022-09-13T04:45:32.898Z,99.99
2022-09-13T04:46:32.763Z,99.99
2022-09-13T04:47:32.752Z,99.99
2022-09-13T04:48:32.741Z,99.99
2022-09-13T04:49:32.983Z,99.99
2022-09-13T04:50:32.981Z,99.99
2022-09-13T04:51:32.963Z,99.99
2022-09-13T04:52:32.956Z,99.99
2022-09-13T04:53:32.994Z,99.99
2022-09-13T04:54:32.938Z,99.99
2022-09-13T04:55:32.927Z,99.99
2022-09-13T04:56:32.916Z,99.99
2022-09-13T04:57:32.906Z,99.99
2022-09-13T04:58:32.643Z,99.99
2022-09-13T04:59:32.631Z,99.99
2022-09-13T05:00:32.624Z,99.99
2022-09-13T05:01:32.745Z,99.99
2022-09-13T05:02:32.712Z,99.99
2022-09-13T05:03:32.845Z,99.99
2022-09-13T05:04:32.582Z,99.99
2022-09-13T05:05:32.825Z,99.99
2022-09-13T05:06:32.820Z,99.99
2022-09-13T05:07:32.805Z,99.99
2022-09-13T05:08:32.541Z,99.99
2022-09-13T05:09:32.983Z,99.99
2022-09-13T05:10:32.780Z,99.99
2022-09-13T05:11:32.514Z,99.99
2022-09-13T05:12:32.762Z,99.99
2022-09-13T05:13:32.490Z,99.99
2022-09-13T05:14:32.484Z,99.99
2022-09-13T05:15:32.471Z,99.99
2022-09-13T05:16:32.471Z,99.99
2022-09-13T05:17:32.706Z,99.99
2022-09-13T05:18:32.700Z,99.99
2022-09-13T05:19:32.432Z,99.99
2022-09-13T05:20:32.680Z,99.99
2022-09-13T05:21:32.666Z,99.99
2022-09-13T05:22:32.658Z,99.99
2022-09-13T05:23:32.393Z,99.99
2022-09-13T05:24:32.646Z,99.99
2022-09-13T05:25:32.763Z,99.99
2022-09-13T05:26:32.365Z,99.99
2022-09-13T05:27:32.608Z,99.99
2022-09-13T05:28:32.345Z,99.99
2022-09-13T05:29:32.603Z,99.99
2022-09-13T05:30:32.586Z,99.99
2022-09-13T05:31:32.411Z,99.99
2022-09-13T05:32:32.571Z,99.99
2022-09-13T05:33:32.553Z,99.99
2022-09-13T05:34:32.541Z,99.99
2022-09-13T05:35:32.537Z,99.99
2022-09-13T05:36:32.266Z,99.99
2022-09-13T05:37:32.520Z,99.99
2022-09-13T05:38:32.248Z,99.99
2022-09-13T05:40:00.604Z,99.99
2022-09-13T05:40:32.392Z,99.99
2022-09-13T05:41:32.614Z,99.99
2022-09-13T05:42:32.466Z,99.99
2022-09-13T05:43:32.206Z,99.99
2022-09-13T05:44:32.196Z,99.99
2022-09-13T05:45:32.195Z,99.99
2022-09-13T05:46:32.279Z,99.99
2022-09-13T05:47:32.167Z,99.99
2022-09-13T05:48:32.412Z,99.99
2022-09-13T05:49:32.463Z,99.99
2022-09-13T05:50:59.608Z,99.99
2022-09-13T05:51:32.387Z,99.99
2022-09-13T05:52:32.383Z,99.99
2022-09-13T05:53:32.117Z,99.99
2022-09-13T05:54:32.365Z,99.99
2022-09-13T05:55:32.358Z,99.99
2022-09-13T05:56:32.343Z,99.99
2022-09-13T05:57:32.427Z,99.99
2022-09-13T05:58:32.069Z,99.99
2022-09-13T05:59:32.315Z,99.99
2022-09-13T06:00:32.306Z,99.99
2022-09-13T06:01:32.524Z,99.99
2022-09-13T06:02:32.090Z,99.99
2022-09-13T06:03:32.293Z,99.99
2022-09-13T06:04:32.041Z,99.99
2022-09-13T06:05:34.109Z,99.99
2022-09-13T06:06:31.998Z,99.99
2022-09-13T06:07:31.990Z,99.99
2022-09-13T06:08:32.239Z,99.99
2022-09-13T06:09:31.975Z,99.99
2022-09-13T06:10:31.966Z,99.99
2022-09-13T06:11:32.232Z,99.99
2022-09-13T06:12:31.948Z,99.99
2022-09-13T06:13:32.243Z,99.99
2022-09-13T06:14:32.192Z,99.99
2022-09-13T06:15:32.179Z,99.99
2022-09-13T06:16:32.252Z,99.99
2022-09-13T06:17:31.907Z,99.99
2022-09-13T06:18:31.901Z,99.99
2022-09-13T06:19:32.146Z,99.99
2022-09-13T06:20:32.142Z,99.99
2022-09-13T06:21:32.131Z,99.99
2022-09-13T06:22:32.122Z,99.99
2022-09-13T06:23:32.110Z,99.99
2022-09-13T06:24:31.851Z,99.99
2022-09-13T06:25:32.095Z,99.99
2022-09-13T06:26:31.836Z,99.99
2022-09-13T06:27:32.078Z,99.99
2022-09-13T06:28:37.373Z,99.99
2022-09-13T06:29:32.171Z,99.99
2022-09-13T06:30:31.802Z,99.99
2022-09-13T06:31:31.889Z,99.99
2022-09-13T06:32:32.047Z,99.99
2022-09-13T06:33:31.778Z,99.99
2022-09-13T06:34:33.953Z,99.99
2022-09-13T06:35:32.015Z,99.99
2022-09-13T06:36:31.758Z,99.99
2022-09-13T06:37:31.744Z,99.99
2022-09-13T06:38:31.996Z,99.67
2022-09-13T06:39:31.989Z,99.38
2022-09-13T06:40:31.950Z,97.47
2022-09-13T06:41:31.712Z,97.18
2022-09-13T06:42:31.965Z,97.09
2022-09-13T06:43:31.701Z,97.09
2022-09-13T06:44:31.716Z,96.13
2022-09-13T06:45:31.968Z,92.97
2022-09-13T06:46:31.895Z,92.4
2022-09-13T06:47:31.669Z,93.07
2022-09-13T06:48:31.926Z,92.87
2022-09-13T06:49:31.907Z,92.35
2022-09-13T06:50:31.906Z,91.53
2022-09-13T06:51:31.896Z,91.63
2022-09-13T06:52:31.891Z,91.92
2022-09-13T06:53:31.629Z,92.01
2022-09-13T06:54:31.623Z,92.4
2022-09-13T06:55:31.873Z,92.49
2022-09-13T06:56:31.870Z,92.97
2022-09-13T06:57:31.855Z,93.35
2022-09-13T06:58:31.849Z,93.26
2022-09-13T06:59:31.840Z,92.68
2022-09-13T07:00:31.912Z,93.16
2022-09-13T07:01:32.230Z,93.16
2022-09-13T07:02:31.568Z,92.97
2022-09-13T07:03:31.809Z,92.78
2022-09-13T07:04:31.814Z,93.07
2022-09-13T07:05:31.796Z,93.64
2022-09-13T07:06:31.802Z,93.93
2022-09-13T07:07:31.531Z,93.26
2022-09-13T07:08:31.775Z,93.07
2022-09-13T07:09:31.510Z,92.78
2022-09-13T07:10:31.762Z,92.87
2022-09-13T07:11:31.495Z,92.87
2022-09-13T07:12:31.747Z,93.02
2022-09-13T07:13:31.736Z,92.58
2022-09-13T07:14:31.477Z,92.06
2022-09-13T07:15:31.496Z,91.1
2022-09-13T07:16:31.574Z,90.91
2022-09-13T07:17:33.973Z,90.81
2022-09-13T07:18:31.447Z,91
2022-09-13T07:19:31.451Z,90.72
2022-09-13T07:20:31.436Z,91
2022-09-13T07:21:31.688Z,89.61
2022-09-13T07:22:31.422Z,88.84
2022-09-13T07:23:31.413Z,88.46
2022-09-13T07:24:31.670Z,88.27
2022-09-13T07:25:31.657Z,88.08
2022-09-13T07:26:31.646Z,87.02
2022-09-13T07:27:31.390Z,86.3
2022-09-13T07:28:37.054Z,85.63
2022-09-13T07:29:31.375Z,85.25
2022-09-13T07:30:31.365Z,84.38
2022-09-13T07:31:31.546Z,84.09
2022-09-13T07:32:31.718Z,83.65
2022-09-13T07:33:31.725Z,83.47
2022-09-13T07:34:31.346Z,83.85
2022-09-13T07:35:31.589Z,83.47
2022-09-13T07:36:31.328Z,83.75
2022-09-13T07:37:31.579Z,83.18
2022-09-13T07:38:31.316Z,83.37
2022-09-13T07:39:31.570Z,83.27
2022-09-13T07:40:31.561Z,83.08
2022-09-13T07:41:31.300Z,82.51
2022-09-13T07:42:31.291Z,81.54
2022-09-13T07:43:31.543Z,82.31
2022-09-13T07:44:31.279Z,82.6
2022-09-13T07:45:31.533Z,82.51
2022-09-13T07:46:31.338Z,82.84
2022-09-13T07:47:31.520Z,82.16
2022-09-13T07:48:35.818Z,81.01
2022-09-13T07:49:31.618Z,79.99
2022-09-13T07:50:31.257Z,78.84
2022-09-13T07:51:31.508Z,78.55
2022-09-13T07:52:31.491Z,78.08
2022-09-13T07:53:31.483Z,78.45
2022-09-13T07:54:31.225Z,79.22
2022-09-13T07:55:31.220Z,79.42
2022-09-13T07:56:31.216Z,79.32
2022-09-13T07:57:31.463Z,79.42
2022-09-13T07:58:31.459Z,79.17
2022-09-13T07:59:32.533Z,79.03
2022-09-13T08:00:31.198Z,78.65
2022-09-13T08:01:31.473Z,78.55
2022-09-13T08:02:31.606Z,78.27
2022-09-13T08:03:31.432Z,77.98
2022-09-13T08:04:36.483Z,78.45
2022-09-13T08:05:31.445Z,78.65
2022-09-13T08:06:31.162Z,79.19
2022-09-13T08:07:31.413Z,78.94
2022-09-13T08:08:31.157Z,78.84
2022-09-13T08:09:31.404Z,78.36
2022-09-13T08:10:31.160Z,78.65
2022-09-13T08:11:31.390Z,78.17
2022-09-13T08:12:31.136Z,77.78
2022-09-13T08:13:31.382Z,77.21
2022-09-13T08:14:31.121Z,77.21
2022-09-13T08:15:31.230Z,76.25
2022-09-13T08:16:31.366Z,76.64
2022-09-13T08:17:31.362Z,76.57
2022-09-13T08:18:31.360Z,76.64
2022-09-13T08:19:31.350Z,77.11
2022-09-13T08:20:31.373Z,77.11
2022-09-13T08:21:31.452Z,77.31
2022-09-13T08:22:31.091Z,77.01
2022-09-13T08:23:31.078Z,77.4
2022-09-13T08:24:31.329Z,77.31
2022-09-13T08:25:31.066Z,77.46
2022-09-13T08:26:31.322Z,77.26
2022-09-13T08:27:31.310Z,77.78
2022-09-13T08:28:31.053Z,77.56
2022-09-13T08:29:31.049Z,77.65
2022-09-13T08:30:31.305Z,77.75
2022-09-13T08:31:31.195Z,77.69
2022-09-13T08:32:31.032Z,77.75
2022-09-13T08:33:31.030Z,77.84
2022-09-13T08:34:31.279Z,76.98
2022-09-13T08:35:31.016Z,77.36
2022-09-13T08:36:31.383Z,77.26
2022-09-13T08:37:31.285Z,77.84
2022-09-13T08:38:31.010Z,77.69
2022-09-13T08:39:33.523Z,77.75
2022-09-13T08:40:30.994Z,77.94
2022-09-13T08:41:30.988Z,78.42
2022-09-13T08:42:30.984Z,79.09
2022-09-13T08:43:30.976Z,79.38
2022-09-13T08:44:31.236Z,79.67
2022-09-13T08:45:31.221Z,80.05
2022-09-13T08:46:31.474Z,80.2
2022-09-13T08:47:31.209Z,80.91
2022-09-13T08:48:31.210Z,81.49
2022-09-13T08:49:31.203Z,81.93
2022-09-13T08:50:31.197Z,81.93
2022-09-13T08:51:31.192Z,82.54
2022-09-13T08:52:31.213Z,82.84
2022-09-13T08:53:31.206Z,83.41
2022-09-13T08:54:30.922Z,83.22
2022-09-13T08:55:30.917Z,83.22
2022-09-13T08:56:31.166Z,82.54
2022-09-13T08:57:30.907Z,82.64
2022-09-13T08:58:30.901Z,81.63
2022-09-13T08:59:31.153Z,81.82
2022-09-13T09:00:31.144Z,81.72
2022-09-13T09:01:31.316Z,80.71
2022-09-13T09:02:31.065Z,80.04
2022-09-13T09:03:30.875Z,79.69
2022-09-13T09:04:30.877Z,78.92
2022-09-13T09:05:30.867Z,77.73
2022-09-13T09:06:31.117Z,77
2022-09-13T09:07:31.114Z,76.81
2022-09-13T09:08:31.137Z,75.75
2022-09-13T09:09:31.128Z,75.56
2022-09-13T09:10:30.841Z,75.75
2022-09-13T09:11:31.095Z,75.11
2022-09-13T09:12:31.083Z,74.73
2022-09-13T09:13:30.831Z,74.34
2022-09-13T09:14:31.079Z,74.54
2022-09-13T09:15:31.164Z,74.54
2022-09-13T09:16:30.813Z,74.63
2022-09-13T09:17:30.837Z,74.15
2022-09-13T09:18:31.059Z,73.96
2022-09-13T09:19:30.807Z,73.67
2022-09-13T09:20:31.057Z,73.96
2022-09-13T09:21:31.056Z,74.05
2022-09-13T09:22:30.792Z,73.67
2022-09-13T09:23:31.070Z,74.25
2022-09-13T09:24:30.810Z,75.88
2022-09-13T09:25:31.064Z,74.15
2022-09-13T09:26:31.027Z,74.44
2022-09-13T09:27:31.033Z,74.34
2022-09-13T09:28:31.033Z,74.05
2022-09-13T09:29:31.022Z,74.92
2022-09-13T09:30:31.021Z,74.21
2022-09-13T09:31:31.025Z,74.44
2022-09-13T09:32:31.007Z,74.92
2022-09-13T09:33:31.009Z,74.54
2022-09-13T09:34:30.758Z,73.61
2022-09-13T09:35:31.003Z,72.74
2022-09-13T09:36:30.989Z,72.07
2022-09-13T09:37:30.733Z,71.78
2022-09-13T09:38:30.728Z,71.3
2022-09-13T09:39:30.725Z,71.3
2022-09-13T09:40:34.248Z,71.4
2022-09-13T09:41:31.086Z,71.4
2022-09-13T09:42:30.990Z,71.01
2022-09-13T09:43:30.710Z,71.3
2022-09-13T09:44:30.964Z,71.69
2022-09-13T09:45:30.964Z,71.78
2022-09-13T09:46:30.848Z,71.97
2022-09-13T09:47:32.082Z,71.49
2022-09-13T09:48:30.695Z,71.26
2022-09-13T09:49:30.687Z,71.08
2022-09-13T09:50:30.687Z,71.17
2022-09-13T09:51:30.936Z,71.36
2022-09-13T09:52:30.933Z,71.2
2022-09-13T09:53:34.943Z,71.49
2022-09-13T09:54:30.673Z,71.11
2022-09-13T09:55:30.921Z,70.72
2022-09-13T09:56:31.028Z,70.62
2022-09-13T09:57:30.940Z,69.99
2022-09-13T09:58:30.664Z,69.76
2022-09-13T09:59:30.908Z,70.37
2022-09-13T10:00:30.655Z,69.89
2022-09-13T10:01:30.799Z,69.22
2022-09-13T10:02:30.810Z,68.06
2022-09-13T10:03:30.909Z,68.06
2022-09-13T10:04:30.892Z,68.06
2022-09-13T10:05:30.638Z,66.52
2022-09-13T10:06:30.903Z,66.04
2022-09-13T10:07:30.881Z,66.42
2022-09-13T10:08:30.883Z,67.49
2022-09-13T10:09:30.874Z,66.78
2022-09-13T10:10:30.621Z,66.2
2022-09-13T10:11:30.615Z,66.58
2022-09-13T10:12:30.895Z,66.58
2022-09-13T10:13:34.411Z,66.58
2022-09-13T10:14:30.607Z,66.58
2022-09-13T10:15:30.860Z,66.58
2022-09-13T10:16:31.071Z,67.35
2022-09-13T10:17:30.593Z,68.41
2022-09-13T10:18:47.450Z,68.51
2022-09-13T10:19:30.586Z,68.51
2022-09-13T10:20:30.846Z,68.9
2022-09-13T10:21:30.834Z,69.47
2022-09-13T10:22:30.840Z,69.28
2022-09-13T10:23:30.573Z,67.83
2022-09-13T10:24:30.830Z,67.42
2022-09-13T10:25:30.827Z,68.38
2022-09-13T10:26:30.562Z,68.48
2022-09-13T10:27:30.813Z,67.65
2022-09-13T10:28:30.848Z,67.51
2022-09-13T10:29:31.065Z,69.09
2022-09-13T10:30:30.875Z,70.24
2022-09-13T10:31:30.800Z,69.85
2022-09-13T10:32:30.803Z,69.99
2022-09-13T10:33:30.541Z,69.45
2022-09-13T10:34:30.796Z,68.87
2022-09-13T10:35:30.789Z,68.58
2022-09-13T10:36:54.018Z,66.46
2022-09-13T10:37:30.780Z,66.36
2022-09-13T10:38:30.778Z,65.3
2022-09-13T10:39:30.519Z,65.98
2022-09-13T10:40:30.619Z,66.01
2022-09-13T10:41:30.536Z,66.11
2022-09-13T10:42:30.510Z,66.01
2022-09-13T10:43:30.765Z,65.24
2022-09-13T10:44:30.783Z,64.76
2022-09-13T10:45:30.782Z,65.05
2022-09-13T10:46:30.500Z,65.24
2022-09-13T10:47:30.752Z,66.3
2022-09-13T10:48:30.496Z,65.75
2022-09-13T10:49:30.488Z,65.37
2022-09-13T10:50:30.738Z,65.37
2022-09-13T10:51:30.748Z,65.37
2022-09-13T10:52:30.743Z,65.75
2022-09-13T10:53:30.737Z,64.89
2022-09-13T10:54:30.474Z,64.72
2022-09-13T10:55:30.732Z,64.92
2022-09-13T10:56:30.470Z,64.63
2022-09-13T10:57:30.469Z,64.72
2022-09-13T10:58:30.720Z,65.4
2022-09-13T10:59:30.737Z,64.72
2022-09-13T11:00:30.492Z,64.43
2022-09-13T11:01:30.946Z,64.72
2022-09-13T11:02:30.711Z,64.63
2022-09-13T11:03:30.709Z,64.43
2022-09-13T11:04:30.917Z,64.53
2022-09-13T11:05:30.705Z,64.82
2022-09-13T11:06:30.449Z,64.43
2022-09-13T11:07:30.703Z,64.63
2022-09-13T11:08:30.700Z,64.15
2022-09-13T11:09:30.451Z,62.79
2022-09-13T11:10:30.695Z,62.41
2022-09-13T11:11:30.692Z,62.31
2022-09-13T11:12:30.687Z,61.44
2022-09-13T11:13:30.437Z,61.64
2022-09-13T11:14:30.690Z,62.51
2022-09-13T11:15:30.685Z,62.31
2022-09-13T11:16:30.804Z,61.25
2022-09-13T11:17:30.706Z,61.54
2022-09-13T11:18:30.424Z,62.12
2022-09-13T11:19:30.684Z,61.06
2022-09-13T11:20:30.680Z,61.44
2022-09-13T11:21:30.682Z,61.9
2022-09-13T11:22:30.415Z,61.93
2022-09-13T11:23:30.414Z,60.48
2022-09-13T11:24:30.412Z,61.35
2022-09-13T11:25:30.418Z,61.16
2022-09-13T11:26:30.663Z,60.89
2022-09-13T11:27:30.408Z,60.99
2022-09-13T11:28:30.657Z,61.47
2022-09-13T11:29:30.661Z,61.64
2022-09-13T11:30:32.358Z,61.54
2022-09-13T11:31:30.542Z,61.54
2022-09-13T11:32:30.768Z,61.25
2022-09-13T11:33:30.762Z,61.74
2022-09-13T11:34:30.396Z,62.05
2022-09-13T11:35:30.714Z,63.12
2022-09-13T11:36:30.392Z,63.5
2022-09-13T11:37:30.644Z,62.73
2022-09-13T11:38:30.666Z,62.63
2022-09-13T11:39:30.639Z,62.66
2022-09-13T11:40:30.639Z,62.34
2022-09-13T11:41:30.427Z,62.08
2022-09-13T11:42:30.641Z,62.08
2022-09-13T11:43:30.633Z,61.7
2022-09-13T11:44:30.669Z,61.31
2022-09-13T11:45:30.782Z,61.7
2022-09-13T11:46:30.633Z,60.35
2022-09-13T11:47:30.628Z,60.38
2022-09-13T11:48:30.656Z,60.96
2022-09-13T11:49:30.651Z,62.12
2022-09-13T11:50:30.376Z,62.4
2022-09-13T11:51:30.622Z,61.05
2022-09-13T11:52:30.628Z,60.47
2022-09-13T11:53:32.432Z,61.25
2022-09-13T11:54:30.379Z,60.86
2022-09-13T11:55:30.620Z,59.41
2022-09-13T11:56:30.368Z,59.38
2022-09-13T11:57:30.617Z,59.51
2022-09-13T11:58:30.363Z,60.06
2022-09-13T11:59:30.613Z,60.06
2022-09-13T12:00:30.616Z,60.44
2022-09-13T12:01:30.356Z,60.44
2022-09-13T12:02:30.811Z,59.86
2022-09-13T12:03:30.935Z,60.35
2022-09-13T12:04:35.950Z,60.83
2022-09-13T12:05:30.631Z,61.12
2022-09-13T12:06:30.609Z,61.12
2022-09-13T12:07:30.612Z,60.54
2022-09-13T12:08:30.608Z,60.35
2022-09-13T12:09:30.605Z,60.25
2022-09-13T12:10:30.605Z,61.22
2022-09-13T12:11:30.348Z,61.57
2022-09-13T12:12:30.348Z,62.25
2022-09-13T12:13:30.599Z,61.47
2022-09-13T12:14:30.600Z,61.83
2022-09-13T12:15:30.627Z,61.93
2022-09-13T12:16:35.502Z,62.7
2022-09-13T12:17:30.337Z,63.67
2022-09-13T12:18:30.597Z,64.05
2022-09-13T12:19:30.335Z,63.57
2022-09-13T12:20:30.489Z,63.54
2022-09-13T12:21:30.699Z,63.82
2022-09-13T12:22:33.115Z,63.92
2022-09-13T12:23:30.591Z,63.63
2022-09-13T12:24:30.329Z,63.54
2022-09-13T12:25:30.327Z,63.54
2022-09-13T12:26:30.328Z,63.54
2022-09-13T12:27:30.320Z,62.48
2022-09-13T12:28:30.572Z,63.12
2022-09-13T12:29:30.574Z,63.41
2022-09-13T12:30:30.574Z,62.45
2022-09-13T12:31:30.653Z,61.9
2022-09-13T12:32:30.564Z,62.15
2022-09-13T12:33:30.566Z,63.7
2022-09-13T12:34:30.564Z,63.6
2022-09-13T12:35:30.573Z,63.12
2022-09-13T12:36:30.586Z,63.21
2022-09-13T12:37:30.585Z,63.79
2022-09-13T12:38:33.865Z,64.18
2022-09-13T12:39:30.556Z,64.56
2022-09-13T12:40:30.296Z,64.28
2022-09-13T12:41:30.294Z,64.86
2022-09-13T12:42:30.545Z,64.76
2022-09-13T12:43:30.563Z,65.43
2022-09-13T12:44:35.572Z,64.95
2022-09-13T12:45:30.616Z,65.05
2022-09-13T12:46:30.539Z,64.66
2022-09-13T12:47:30.279Z,64.95
2022-09-13T12:48:30.530Z,64.66
2022-09-13T12:49:30.528Z,64.02
2022-09-13T12:50:45.886Z,63.63
2022-09-13T12:51:30.270Z,63.63
2022-09-13T12:52:30.569Z,63.54
2022-09-13T12:53:30.606Z,63.73
2022-09-13T12:54:30.517Z,62.89
2022-09-13T12:55:48.279Z,62.99
2022-09-13T12:56:30.264Z,62.89
2022-09-13T12:57:30.262Z,62.31
2022-09-13T12:58:30.256Z,62.31
2022-09-13T12:59:30.257Z,62.15
2022-09-13T13:00:30.506Z,60.71
2022-09-13T13:01:30.541Z,61.19
2022-09-13T13:02:30.497Z,61.09
2022-09-13T13:03:30.254Z,60.8
2022-09-13T13:04:30.244Z,61.28
2022-09-13T13:05:30.245Z,61.19
2022-09-13T13:06:30.493Z,62.79
2022-09-13T13:07:30.242Z,62.31
2022-09-13T13:08:30.301Z,62.6
2022-09-13T13:09:31.519Z,62.51